sensor_id;sensor_type;location;lat;lon;timestamp;P1;durP1;ratioP1;P2;durP2;ratioP2
3022;SDS011;1521;53.584;9.938;2023-12-20T00:00:13;14.97;;;3.00;;
3022;SDS011;1521;53.584;9.938;2023-12-20T00:02:39;19.87;;;3.30;;
3022;SDS011;1521;53.584;9.938;2023-12-20T00:05:04;14.27;;;2.53;;
3022;SDS011;1521;53.584;9.938;2023-12-20T00:07:30;12.83;;;3.00;;
3022;SDS011;1521;53.584;9.938;2023-12-20T00:09:56;24.63;;;3.60;;
3022;SDS011;1521;53.584;9.938;2023-12-20T00:12:22;24.67;;;3.33;;
3022;SDS011;1521;53.584;9.938;2023-12-20T00:14:47;22.47;;;3.00;;
3022;SDS011;1521;53.584;9.938;2023-12-20T00:17:13;18.93;;;2.40;;
3022;SDS011;1521;53.584;9.938;2023-12-20T00:19:39;16.27;;;2.33;;
3022;SDS011;1521;53.584;9.938;2023-12-20T00:22:04;21.07;;;2.97;;
3022;SDS011;1521;53.584;9.938;2023-12-20T00:24:30;18.27;;;2.90;;
3022;SDS011;1521;53.584;9.938;2023-12-20T00:26:55;18.50;;;2.90;;
3022;SDS011;1521;53.584;9.938;2023-12-20T00:29:21;15.80;;;2.90;;
3022;SDS011;1521;53.584;9.938;2023-12-20T00:31:46;15.80;;;2.93;;
3022;SDS011;1521;53.584;9.938;2023-12-20T00:34:12;22.43;;;3.00;;
3022;SDS011;1521;53.584;9.938;2023-12-20T00:36:37;13.93;;;3.20;;
3022;SDS011;1521;53.584;9.938;2023-12-20T00:39:03;21.37;;;3.23;;
3022;SDS011;1521;53.584;9.938;2023-12-20T00:41:29;18.93;;;2.87;;
3022;SDS011;1521;53.584;9.938;2023-12-20T00:43:55;16.23;;;2.60;;
3022;SDS011;1521;53.584;9.938;2023-12-20T00:46:20;18.73;;;3.97;;
3022;SDS011;1521;53.584;9.938;2023-12-20T00:48:46;17.47;;;3.10;;
3022;SDS011;1521;53.584;9.938;2023-12-20T00:51:11;10.47;;;2.50;;
3022;SDS011;1521;53.584;9.938;2023-12-20T00:53:37;16.63;;;3.33;;
3022;SDS011;1521;53.584;9.938;2023-12-20T00:56:02;21.70;;;3.53;;
3022;SDS011;1521;53.584;9.938;2023-12-20T00:58:28;13.57;;;2.60;;
3022;SDS011;1521;53.584;9.938;2023-12-20T01:00:54;18.53;;;3.30;;
3022;SDS011;1521;53.584;9.938;2023-12-20T01:03:19;13.83;;;2.83;;
3022;SDS011;1521;53.584;9.938;2023-12-20T01:05:45;18.63;;;2.83;;
3022;SDS011;1521;53.584;9.938;2023-12-20T01:08:10;17.27;;;2.97;;
3022;SDS011;1521;53.584;9.938;2023-12-20T01:10:36;23.30;;;3.10;;
3022;SDS011;1521;53.584;9.938;2023-12-20T01:13:02;26.20;;;2.93;;
3022;SDS011;1521;53.584;9.938;2023-12-20T01:15:27;13.47;;;2.93;;
3022;SDS011;1521;53.584;9.938;2023-12-20T01:17:53;9.53;;;2.17;;
3022;SDS011;1521;53.584;9.938;2023-12-20T01:20:18;39.70;;;3.03;;
3022;SDS011;1521;53.584;9.938;2023-12-20T01:22:45;11.60;;;2.73;;
3022;SDS011;1521;53.584;9.938;2023-12-20T01:25:11;19.33;;;2.80;;
3022;SDS011;1521;53.584;9.938;2023-12-20T01:27:37;14.53;;;3.20;;
3022;SDS011;1521;53.584;9.938;2023-12-20T01:30:03;15.00;;;2.83;;
3022;SDS011;1521;53.584;9.938;2023-12-20T01:32:29;14.67;;;2.67;;
3022;SDS011;1521;53.584;9.938;2023-12-20T01:34:55;13.83;;;2.73;;
3022;SDS011;1521;53.584;9.938;2023-12-20T01:37:20;16.20;;;2.80;;
3022;SDS011;1521;53.584;9.938;2023-12-20T01:39:48;11.83;;;2.50;;
3022;SDS011;1521;53.584;9.938;2023-12-20T01:42:14;18.83;;;2.73;;
3022;SDS011;1521;53.584;9.938;2023-12-20T01:44:39;32.40;;;3.93;;
3022;SDS011;1521;53.584;9.938;2023-12-20T01:47:05;15.43;;;2.53;;
3022;SDS011;1521;53.584;9.938;2023-12-20T01:49:31;21.47;;;3.30;;
3022;SDS011;1521;53.584;9.938;2023-12-20T01:51:56;19.83;;;2.97;;
3022;SDS011;1521;53.584;9.938;2023-12-20T01:54:22;19.33;;;3.43;;
3022;SDS011;1521;53.584;9.938;2023-12-20T01:56:48;18.00;;;2.50;;
3022;SDS011;1521;53.584;9.938;2023-12-20T01:59:15;10.43;;;2.50;;
3022;SDS011;1521;53.584;9.938;2023-12-20T02:01:41;23.17;;;3.40;;
3022;SDS011;1521;53.584;9.938;2023-12-20T02:04:07;10.60;;;2.63;;
3022;SDS011;1521;53.584;9.938;2023-12-20T02:06:33;16.63;;;2.70;;
3022;SDS011;1521;53.584;9.938;2023-12-20T02:08:59;21.63;;;2.53;;
3022;SDS011;1521;53.584;9.938;2023-12-20T02:11:25;29.43;;;3.20;;
3022;SDS011;1521;53.584;9.938;2023-12-20T02:13:51;13.57;;;3.20;;
3022;SDS011;1521;53.584;9.938;2023-12-20T02:16:17;13.47;;;2.60;;
3022;SDS011;1521;53.584;9.938;2023-12-20T02:18:43;14.23;;;2.53;;
3022;SDS011;1521;53.584;9.938;2023-12-20T02:21:09;12.30;;;2.33;;
3022;SDS011;1521;53.584;9.938;2023-12-20T02:23:35;18.57;;;2.50;;
3022;SDS011;1521;53.584;9.938;2023-12-20T02:26:00;30.20;;;3.27;;
3022;SDS011;1521;53.584;9.938;2023-12-20T02:28:27;21.60;;;2.73;;
3022;SDS011;1521;53.584;9.938;2023-12-20T02:30:53;13.53;;;2.57;;
3022;SDS011;1521;53.584;9.938;2023-12-20T02:33:18;19.50;;;2.30;;
3022;SDS011;1521;53.584;9.938;2023-12-20T02:35:44;18.77;;;3.67;;
3022;SDS011;1521;53.584;9.938;2023-12-20T02:38:09;29.30;;;2.97;;
3022;SDS011;1521;53.584;9.938;2023-12-20T02:40:35;25.03;;;3.73;;
3022;SDS011;1521;53.584;9.938;2023-12-20T02:43:01;18.27;;;3.07;;
3022;SDS011;1521;53.584;9.938;2023-12-20T02:45:26;14.20;;;2.93;;
3022;SDS011;1521;53.584;9.938;2023-12-20T02:47:52;13.03;;;2.80;;
3022;SDS011;1521;53.584;9.938;2023-12-20T02:50:18;17.33;;;2.57;;
3022;SDS011;1521;53.584;9.938;2023-12-20T02:52:44;22.03;;;2.67;;
3022;SDS011;1521;53.584;9.938;2023-12-20T02:55:10;15.50;;;3.63;;
3022;SDS011;1521;53.584;9.938;2023-12-20T02:57:36;16.37;;;2.67;;
3022;SDS011;1521;53.584;9.938;2023-12-20T03:00:06;11.17;;;2.20;;
3022;SDS011;1521;53.584;9.938;2023-12-20T03:02:35;12.33;;;2.67;;
3022;SDS011;1521;53.584;9.938;2023-12-20T03:05:01;19.80;;;2.50;;
3022;SDS011;1521;53.584;9.938;2023-12-20T03:07:27;11.13;;;2.57;;
3022;SDS011;1521;53.584;9.938;2023-12-20T03:09:53;15.53;;;3.10;;
3022;SDS011;1521;53.584;9.938;2023-12-20T03:12:18;17.47;;;2.83;;
3022;SDS011;1521;53.584;9.938;2023-12-20T03:14:44;9.50;;;2.40;;
3022;SDS011;1521;53.584;9.938;2023-12-20T03:17:10;15.43;;;3.27;;
3022;SDS011;1521;53.584;9.938;2023-12-20T03:19:35;16.07;;;3.20;;
3022;SDS011;1521;53.584;9.938;2023-12-20T03:22:01;23.80;;;3.30;;
3022;SDS011;1521;53.584;9.938;2023-12-20T03:24:27;16.40;;;3.10;;
3022;SDS011;1521;53.584;9.938;2023-12-20T03:26:52;15.13;;;3.33;;
3022;SDS011;1521;53.584;9.938;2023-12-20T03:29:18;14.47;;;2.90;;
3022;SDS011;1521;53.584;9.938;2023-12-20T03:31:44;14.27;;;2.63;;
3022;SDS011;1521;53.584;9.938;2023-12-20T03:34:10;19.53;;;3.00;;
3022;SDS011;1521;53.584;9.938;2023-12-20T03:36:36;17.60;;;3.20;;
3022;SDS011;1521;53.584;9.938;2023-12-20T03:39:02;17.60;;;3.20;;
3022;SDS011;1521;53.584;9.938;2023-12-20T03:41:27;10.27;;;2.77;;
3022;SDS011;1521;53.584;9.938;2023-12-20T03:43:53;14.20;;;2.30;;
3022;SDS011;1521;53.584;9.938;2023-12-20T03:46:19;17.00;;;2.40;;
3022;SDS011;1521;53.584;9.938;2023-12-20T03:48:44;13.90;;;2.60;;
3022;SDS011;1521;53.584;9.938;2023-12-20T03:51:10;17.27;;;2.70;;
3022;SDS011;1521;53.584;9.938;2023-12-20T03:53:35;11.07;;;2.53;;
3022;SDS011;1521;53.584;9.938;2023-12-20T03:56:01;10.40;;;2.60;;
3022;SDS011;1521;53.584;9.938;2023-12-20T03:58:26;9.73;;;2.60;;
3022;SDS011;1521;53.584;9.938;2023-12-20T04:00:52;17.77;;;2.57;;
3022;SDS011;1521;53.584;9.938;2023-12-20T04:03:17;15.50;;;3.00;;
3022;SDS011;1521;53.584;9.938;2023-12-20T04:05:43;20.30;;;2.97;;
3022;SDS011;1521;53.584;9.938;2023-12-20T04:08:09;12.97;;;2.57;;
3022;SDS011;1521;53.584;9.938;2023-12-20T04:10:34;10.70;;;2.50;;
3022;SDS011;1521;53.584;9.938;2023-12-20T04:13:00;12.50;;;2.63;;
3022;SDS011;1521;53.584;9.938;2023-12-20T04:15:26;11.57;;;2.20;;
3022;SDS011;1521;53.584;9.938;2023-12-20T04:17:51;11.43;;;2.60;;
3022;SDS011;1521;53.584;9.938;2023-12-20T04:20:17;21.63;;;3.00;;
3022;SDS011;1521;53.584;9.938;2023-12-20T04:22:43;15.23;;;2.43;;
3022;SDS011;1521;53.584;9.938;2023-12-20T04:25:08;13.10;;;1.97;;
3022;SDS011;1521;53.584;9.938;2023-12-20T04:27:34;25.20;;;2.37;;
3022;SDS011;1521;53.584;9.938;2023-12-20T04:30:00;17.87;;;2.77;;
3022;SDS011;1521;53.584;9.938;2023-12-20T04:32:25;13.23;;;2.47;;
3022;SDS011;1521;53.584;9.938;2023-12-20T04:34:51;13.40;;;2.80;;
3022;SDS011;1521;53.584;9.938;2023-12-20T04:37:16;17.37;;;2.70;;
3022;SDS011;1521;53.584;9.938;2023-12-20T04:39:42;10.70;;;2.53;;
3022;SDS011;1521;53.584;9.938;2023-12-20T04:42:07;23.23;;;3.23;;
3022;SDS011;1521;53.584;9.938;2023-12-20T04:44:33;11.57;;;2.10;;
3022;SDS011;1521;53.584;9.938;2023-12-20T04:46:59;14.73;;;2.60;;
3022;SDS011;1521;53.584;9.938;2023-12-20T04:49:25;15.30;;;3.10;;
3022;SDS011;1521;53.584;9.938;2023-12-20T04:51:50;14.10;;;2.67;;
3022;SDS011;1521;53.584;9.938;2023-12-20T04:54:16;14.47;;;3.80;;
3022;SDS011;1521;53.584;9.938;2023-12-20T04:56:41;8.10;;;2.47;;
3022;SDS011;1521;53.584;9.938;2023-12-20T04:59:07;17.03;;;3.07;;
3022;SDS011;1521;53.584;9.938;2023-12-20T05:01:32;17.03;;;3.23;;
3022;SDS011;1521;53.584;9.938;2023-12-20T05:03:58;11.37;;;2.53;;
3022;SDS011;1521;53.584;9.938;2023-12-20T05:06:24;8.87;;;2.40;;
3022;SDS011;1521;53.584;9.938;2023-12-20T05:08:49;19.47;;;3.50;;
3022;SDS011;1521;53.584;9.938;2023-12-20T05:11:15;13.37;;;3.20;;
3022;SDS011;1521;53.584;9.938;2023-12-20T05:13:41;12.20;;;2.83;;
3022;SDS011;1521;53.584;9.938;2023-12-20T05:16:07;20.23;;;3.20;;
3022;SDS011;1521;53.584;9.938;2023-12-20T05:18:33;18.03;;;2.87;;
3022;SDS011;1521;53.584;9.938;2023-12-20T05:20:59;16.73;;;3.20;;
3022;SDS011;1521;53.584;9.938;2023-12-20T05:23:25;12.93;;;2.93;;
3022;SDS011;1521;53.584;9.938;2023-12-20T05:25:50;19.33;;;2.83;;
3022;SDS011;1521;53.584;9.938;2023-12-20T05:28:16;12.50;;;2.93;;
3022;SDS011;1521;53.584;9.938;2023-12-20T05:30:42;14.80;;;3.57;;
3022;SDS011;1521;53.584;9.938;2023-12-20T05:33:08;14.10;;;3.17;;
3022;SDS011;1521;53.584;9.938;2023-12-20T05:35:34;16.57;;;3.00;;
3022;SDS011;1521;53.584;9.938;2023-12-20T05:37:59;13.90;;;3.00;;
3022;SDS011;1521;53.584;9.938;2023-12-20T05:40:25;14.80;;;3.60;;
3022;SDS011;1521;53.584;9.938;2023-12-20T05:42:51;18.17;;;2.97;;
3022;SDS011;1521;53.584;9.938;2023-12-20T05:45:16;17.90;;;3.70;;
3022;SDS011;1521;53.584;9.938;2023-12-20T05:47:42;23.97;;;4.13;;
3022;SDS011;1521;53.584;9.938;2023-12-20T05:50:07;17.07;;;3.90;;
3022;SDS011;1521;53.584;9.938;2023-12-20T05:52:34;22.87;;;3.77;;
3022;SDS011;1521;53.584;9.938;2023-12-20T05:54:59;15.47;;;3.43;;
3022;SDS011;1521;53.584;9.938;2023-12-20T05:57:26;16.63;;;4.47;;
3022;SDS011;1521;53.584;9.938;2023-12-20T05:59:52;22.57;;;4.10;;
3022;SDS011;1521;53.584;9.938;2023-12-20T06:02:18;21.20;;;3.33;;
3022;SDS011;1521;53.584;9.938;2023-12-20T06:04:43;14.53;;;3.50;;
3022;SDS011;1521;53.584;9.938;2023-12-20T06:07:12;8.17;;;2.83;;
3022;SDS011;1521;53.584;9.938;2023-12-20T06:09:39;19.80;;;4.10;;
3022;SDS011;1521;53.584;9.938;2023-12-20T06:12:05;22.37;;;4.00;;
3022;SDS011;1521;53.584;9.938;2023-12-20T06:14:30;19.50;;;3.40;;
3022;SDS011;1521;53.584;9.938;2023-12-20T06:16:56;13.80;;;3.60;;
3022;SDS011;1521;53.584;9.938;2023-12-20T06:19:22;14.23;;;3.20;;
3022;SDS011;1521;53.584;9.938;2023-12-20T06:21:48;18.20;;;3.93;;
3022;SDS011;1521;53.584;9.938;2023-12-20T06:24:13;14.00;;;2.87;;
3022;SDS011;1521;53.584;9.938;2023-12-20T06:26:39;19.57;;;4.03;;
3022;SDS011;1521;53.584;9.938;2023-12-20T06:29:04;15.50;;;3.77;;
3022;SDS011;1521;53.584;9.938;2023-12-20T06:31:30;21.93;;;3.30;;
3022;SDS011;1521;53.584;9.938;2023-12-20T06:33:58;19.63;;;3.70;;
3022;SDS011;1521;53.584;9.938;2023-12-20T06:36:24;10.00;;;2.90;;
3022;SDS011;1521;53.584;9.938;2023-12-20T06:38:51;22.03;;;3.87;;
3022;SDS011;1521;53.584;9.938;2023-12-20T06:41:17;21.53;;;4.67;;
3022;SDS011;1521;53.584;9.938;2023-12-20T06:43:42;20.17;;;3.97;;
3022;SDS011;1521;53.584;9.938;2023-12-20T06:46:08;21.57;;;3.73;;
3022;SDS011;1521;53.584;9.938;2023-12-20T06:48:34;20.43;;;3.50;;
3022;SDS011;1521;53.584;9.938;2023-12-20T06:51:00;12.07;;;3.50;;
3022;SDS011;1521;53.584;9.938;2023-12-20T06:53:29;24.53;;;4.20;;
3022;SDS011;1521;53.584;9.938;2023-12-20T06:55:54;17.23;;;3.23;;
3022;SDS011;1521;53.584;9.938;2023-12-20T06:58:21;10.93;;;3.27;;
3022;SDS011;1521;53.584;9.938;2023-12-20T07:00:47;14.00;;;2.87;;
3022;SDS011;1521;53.584;9.938;2023-12-20T07:03:13;27.00;;;3.70;;
3022;SDS011;1521;53.584;9.938;2023-12-20T07:05:38;22.00;;;3.30;;
3022;SDS011;1521;53.584;9.938;2023-12-20T07:08:04;15.80;;;2.73;;
3022;SDS011;1521;53.584;9.938;2023-12-20T07:10:30;14.90;;;3.00;;
3022;SDS011;1521;53.584;9.938;2023-12-20T07:12:55;24.13;;;3.33;;
3022;SDS011;1521;53.584;9.938;2023-12-20T07:15:21;20.70;;;4.43;;
3022;SDS011;1521;53.584;9.938;2023-12-20T07:17:48;16.30;;;3.27;;
3022;SDS011;1521;53.584;9.938;2023-12-20T07:20:13;17.80;;;3.37;;
3022;SDS011;1521;53.584;9.938;2023-12-20T07:22:39;19.97;;;3.70;;
3022;SDS011;1521;53.584;9.938;2023-12-20T07:25:04;14.43;;;3.10;;
3022;SDS011;1521;53.584;9.938;2023-12-20T07:27:30;24.10;;;3.83;;
3022;SDS011;1521;53.584;9.938;2023-12-20T07:29:56;12.40;;;3.10;;
3022;SDS011;1521;53.584;9.938;2023-12-20T07:32:21;26.63;;;3.40;;
3022;SDS011;1521;53.584;9.938;2023-12-20T07:34:47;18.43;;;3.67;;
3022;SDS011;1521;53.584;9.938;2023-12-20T07:37:13;13.20;;;3.13;;
3022;SDS011;1521;53.584;9.938;2023-12-20T07:39:41;16.53;;;3.47;;
3022;SDS011;1521;53.584;9.938;2023-12-20T07:42:07;21.80;;;3.77;;
3022;SDS011;1521;53.584;9.938;2023-12-20T07:44:34;17.30;;;4.57;;
3022;SDS011;1521;53.584;9.938;2023-12-20T07:47:00;18.40;;;3.10;;
3022;SDS011;1521;53.584;9.938;2023-12-20T07:49:26;22.40;;;4.10;;
3022;SDS011;1521;53.584;9.938;2023-12-20T07:51:52;19.37;;;3.93;;
3022;SDS011;1521;53.584;9.938;2023-12-20T07:54:18;24.30;;;4.03;;
3022;SDS011;1521;53.584;9.938;2023-12-20T07:56:43;23.67;;;3.97;;
3022;SDS011;1521;53.584;9.938;2023-12-20T07:59:09;20.63;;;3.73;;
3022;SDS011;1521;53.584;9.938;2023-12-20T08:01:35;19.87;;;3.63;;
3022;SDS011;1521;53.584;9.938;2023-12-20T08:04:01;16.30;;;3.80;;
3022;SDS011;1521;53.584;9.938;2023-12-20T08:06:26;16.50;;;3.80;;
3022;SDS011;1521;53.584;9.938;2023-12-20T08:08:52;20.17;;;3.80;;
3022;SDS011;1521;53.584;9.938;2023-12-20T08:11:17;19.23;;;4.37;;
3022;SDS011;1521;53.584;9.938;2023-12-20T08:13:43;18.63;;;4.20;;
3022;SDS011;1521;53.584;9.938;2023-12-20T08:16:08;15.93;;;3.83;;
3022;SDS011;1521;53.584;9.938;2023-12-20T08:18:34;14.80;;;3.80;;
3022;SDS011;1521;53.584;9.938;2023-12-20T08:21:00;19.50;;;4.37;;
3022;SDS011;1521;53.584;9.938;2023-12-20T08:23:26;15.83;;;3.10;;
3022;SDS011;1521;53.584;9.938;2023-12-20T08:25:52;14.93;;;3.10;;
3022;SDS011;1521;53.584;9.938;2023-12-20T08:28:17;14.70;;;3.63;;
3022;SDS011;1521;53.584;9.938;2023-12-20T08:30:43;13.07;;;3.43;;
3022;SDS011;1521;53.584;9.938;2023-12-20T08:33:08;21.10;;;3.53;;
3022;SDS011;1521;53.584;9.938;2023-12-20T08:35:37;20.27;;;3.67;;
3022;SDS011;1521;53.584;9.938;2023-12-20T08:38:06;22.80;;;3.80;;
3022;SDS011;1521;53.584;9.938;2023-12-20T08:40:32;16.03;;;3.50;;
3022;SDS011;1521;53.584;9.938;2023-12-20T08:42:57;19.23;;;3.73;;
3022;SDS011;1521;53.584;9.938;2023-12-20T08:45:23;18.23;;;3.77;;
3022;SDS011;1521;53.584;9.938;2023-12-20T08:47:49;25.60;;;4.17;;
3022;SDS011;1521;53.584;9.938;2023-12-20T08:50:15;19.43;;;4.00;;
3022;SDS011;1521;53.584;9.938;2023-12-20T08:52:40;16.80;;;4.50;;
3022;SDS011;1521;53.584;9.938;2023-12-20T08:55:07;11.17;;;3.30;;
3022;SDS011;1521;53.584;9.938;2023-12-20T08:57:33;24.83;;;3.40;;
3022;SDS011;1521;53.584;9.938;2023-12-20T08:59:58;21.40;;;4.17;;
3022;SDS011;1521;53.584;9.938;2023-12-20T09:02:24;26.37;;;3.57;;
3022;SDS011;1521;53.584;9.938;2023-12-20T09:04:50;14.63;;;3.37;;
3022;SDS011;1521;53.584;9.938;2023-12-20T09:07:24;16.50;;;3.47;;
3022;SDS011;1521;53.584;9.938;2023-12-20T09:09:51;12.27;;;2.90;;
3022;SDS011;1521;53.584;9.938;2023-12-20T09:12:18;12.80;;;3.27;;
3022;SDS011;1521;53.584;9.938;2023-12-20T09:14:44;15.10;;;3.13;;
3022;SDS011;1521;53.584;9.938;2023-12-20T09:17:11;12.03;;;3.00;;
3022;SDS011;1521;53.584;9.938;2023-12-20T09:19:37;14.37;;;3.20;;
3022;SDS011;1521;53.584;9.938;2023-12-20T09:22:03;9.53;;;3.00;;
3022;SDS011;1521;53.584;9.938;2023-12-20T09:24:30;13.40;;;2.43;;
3022;SDS011;1521;53.584;9.938;2023-12-20T09:26:56;15.70;;;2.40;;
3022;SDS011;1521;53.584;9.938;2023-12-20T09:29:21;10.90;;;2.83;;
3022;SDS011;1521;53.584;9.938;2023-12-20T09:31:47;5.97;;;1.40;;
3022;SDS011;1521;53.584;9.938;2023-12-20T09:34:14;2.63;;;1.00;;
3022;SDS011;1521;53.584;9.938;2023-12-20T09:36:41;4.47;;;2.10;;
3022;SDS011;1521;53.584;9.938;2023-12-20T09:39:11;3.33;;;1.43;;
3022;SDS011;1521;53.584;9.938;2023-12-20T09:41:44;3.57;;;0.90;;
3022;SDS011;1521;53.584;9.938;2023-12-20T09:44:15;4.10;;;1.33;;
3022;SDS011;1521;53.584;9.938;2023-12-20T09:46:43;6.23;;;1.60;;
3022;SDS011;1521;53.584;9.938;2023-12-20T09:49:10;5.10;;;1.03;;
3022;SDS011;1521;53.584;9.938;2023-12-20T09:51:37;1.37;;;0.80;;
3022;SDS011;1521;53.584;9.938;2023-12-20T09:54:04;6.80;;;1.27;;
3022;SDS011;1521;53.584;9.938;2023-12-20T09:56:30;3.57;;;1.30;;
3022;SDS011;1521;53.584;9.938;2023-12-20T09:58:56;2.63;;;0.87;;
3022;SDS011;1521;53.584;9.938;2023-12-20T10:01:22;1.63;;;0.70;;
3022;SDS011;1521;53.584;9.938;2023-12-20T10:03:49;1.60;;;0.87;;
3022;SDS011;1521;53.584;9.938;2023-12-20T10:06:19;4.90;;;0.90;;
3022;SDS011;1521;53.584;9.938;2023-12-20T10:08:44;5.67;;;0.90;;
3022;SDS011;1521;53.584;9.938;2023-12-20T10:11:10;4.73;;;1.00;;
3022;SDS011;1521;53.584;9.938;2023-12-20T10:13:42;1.70;;;0.90;;
3022;SDS011;1521;53.584;9.938;2023-12-20T10:16:08;4.83;;;0.90;;
3022;SDS011;1521;53.584;9.938;2023-12-20T10:18:33;3.43;;;1.10;;
3022;SDS011;1521;53.584;9.938;2023-12-20T10:21:00;3.00;;;1.10;;
3022;SDS011;1521;53.584;9.938;2023-12-20T10:23:25;2.60;;;0.97;;
3022;SDS011;1521;53.584;9.938;2023-12-20T10:26:00;2.70;;;0.97;;
3022;SDS011;1521;53.584;9.938;2023-12-20T10:28:26;3.60;;;1.10;;
3022;SDS011;1521;53.584;9.938;2023-12-20T10:30:54;3.80;;;0.93;;
3022;SDS011;1521;53.584;9.938;2023-12-20T10:33:26;2.23;;;0.90;;
3022;SDS011;1521;53.584;9.938;2023-12-20T10:35:53;5.70;;;1.00;;
3022;SDS011;1521;53.584;9.938;2023-12-20T10:38:20;5.50;;;1.47;;
3022;SDS011;1521;53.584;9.938;2023-12-20T10:40:46;8.00;;;1.83;;
3022;SDS011;1521;53.584;9.938;2023-12-20T10:43:11;6.00;;;1.00;;
3022;SDS011;1521;53.584;9.938;2023-12-20T10:45:38;5.37;;;1.30;;
3022;SDS011;1521;53.584;9.938;2023-12-20T10:48:04;5.13;;;1.20;;
3022;SDS011;1521;53.584;9.938;2023-12-20T10:50:30;6.60;;;1.83;;
3022;SDS011;1521;53.584;9.938;2023-12-20T10:52:56;6.73;;;1.40;;
3022;SDS011;1521;53.584;9.938;2023-12-20T10:55:24;8.00;;;1.73;;
3022;SDS011;1521;53.584;9.938;2023-12-20T10:58:06;6.63;;;1.57;;
3022;SDS011;1521;53.584;9.938;2023-12-20T11:00:33;5.33;;;2.10;;
3022;SDS011;1521;53.584;9.938;2023-12-20T11:03:09;6.23;;;1.60;;
3022;SDS011;1521;53.584;9.938;2023-12-20T11:08:17;10.27;;;1.60;;
3022;SDS011;1521;53.584;9.938;2023-12-20T11:11:06;11.57;;;1.30;;
3022;SDS011;1521;53.584;9.938;2023-12-20T11:13:40;13.47;;;1.50;;
3022;SDS011;1521;53.584;9.938;2023-12-20T11:16:18;10.47;;;2.13;;
3022;SDS011;1521;53.584;9.938;2023-12-20T11:18:44;14.50;;;1.97;;
3022;SDS011;1521;53.584;9.938;2023-12-20T11:21:10;10.30;;;2.07;;
3022;SDS011;1521;53.584;9.938;2023-12-20T11:23:36;7.40;;;1.50;;
3022;SDS011;1521;53.584;9.938;2023-12-20T11:26:02;9.47;;;1.83;;
3022;SDS011;1521;53.584;9.938;2023-12-20T11:28:28;10.27;;;1.90;;
3022;SDS011;1521;53.584;9.938;2023-12-20T11:30:58;7.13;;;1.63;;
3022;SDS011;1521;53.584;9.938;2023-12-20T11:33:26;12.20;;;2.17;;
3022;SDS011;1521;53.584;9.938;2023-12-20T11:35:55;11.53;;;2.60;;
3022;SDS011;1521;53.584;9.938;2023-12-20T11:38:21;13.80;;;1.70;;
3022;SDS011;1521;53.584;9.938;2023-12-20T11:40:49;8.83;;;1.60;;
3022;SDS011;1521;53.584;9.938;2023-12-20T11:46:07;18.83;;;2.43;;
3022;SDS011;1521;53.584;9.938;2023-12-20T11:48:34;11.27;;;1.93;;
3022;SDS011;1521;53.584;9.938;2023-12-20T11:51:11;11.80;;;2.07;;
3022;SDS011;1521;53.584;9.938;2023-12-20T11:53:37;9.23;;;2.03;;
3022;SDS011;1521;53.584;9.938;2023-12-20T11:56:04;11.13;;;2.33;;
3022;SDS011;1521;53.584;9.938;2023-12-20T11:58:32;12.47;;;2.13;;
3022;SDS011;1521;53.584;9.938;2023-12-20T12:00:58;14.50;;;2.53;;
3022;SDS011;1521;53.584;9.938;2023-12-20T12:03:23;9.20;;;2.20;;
3022;SDS011;1521;53.584;9.938;2023-12-20T12:05:49;10.43;;;1.70;;
3022;SDS011;1521;53.584;9.938;2023-12-20T12:08:15;9.10;;;1.80;;
3022;SDS011;1521;53.584;9.938;2023-12-20T12:10:42;11.30;;;2.00;;
3022;SDS011;1521;53.584;9.938;2023-12-20T12:13:09;22.07;;;2.93;;
3022;SDS011;1521;53.584;9.938;2023-12-20T12:15:35;13.20;;;2.07;;
3022;SDS011;1521;53.584;9.938;2023-12-20T12:18:01;23.17;;;3.40;;
3022;SDS011;1521;53.584;9.938;2023-12-20T12:20:27;14.43;;;2.90;;
3022;SDS011;1521;53.584;9.938;2023-12-20T12:25:25;11.77;;;2.63;;
3022;SDS011;1521;53.584;9.938;2023-12-20T12:27:52;13.40;;;2.47;;
3022;SDS011;1521;53.584;9.938;2023-12-20T12:30:17;10.20;;;2.00;;
3022;SDS011;1521;53.584;9.938;2023-12-20T12:32:46;9.97;;;2.20;;
3022;SDS011;1521;53.584;9.938;2023-12-20T12:35:11;13.63;;;3.13;;
3022;SDS011;1521;53.584;9.938;2023-12-20T12:37:38;15.90;;;2.77;;
3022;SDS011;1521;53.584;9.938;2023-12-20T12:40:07;12.63;;;2.47;;
3022;SDS011;1521;53.584;9.938;2023-12-20T12:42:39;13.43;;;2.80;;
3022;SDS011;1521;53.584;9.938;2023-12-20T12:45:05;12.17;;;2.77;;
3022;SDS011;1521;53.584;9.938;2023-12-20T12:47:32;9.93;;;2.10;;
3022;SDS011;1521;53.584;9.938;2023-12-20T12:49:58;15.70;;;2.73;;
3022;SDS011;1521;53.584;9.938;2023-12-20T12:52:24;14.47;;;2.40;;
3022;SDS011;1521;53.584;9.938;2023-12-20T12:54:51;18.57;;;2.53;;
3022;SDS011;1521;53.584;9.938;2023-12-20T12:57:17;20.97;;;2.90;;
3022;SDS011;1521;53.584;9.938;2023-12-20T12:59:43;16.10;;;3.20;;
3022;SDS011;1521;53.584;9.938;2023-12-20T13:02:11;11.80;;;2.83;;
3022;SDS011;1521;53.584;9.938;2023-12-20T13:04:42;15.43;;;2.93;;
3022;SDS011;1521;53.584;9.938;2023-12-20T13:07:08;20.10;;;3.33;;
3022;SDS011;1521;53.584;9.938;2023-12-20T13:09:37;10.80;;;2.30;;
3022;SDS011;1521;53.584;9.938;2023-12-20T13:12:04;16.17;;;2.50;;
3022;SDS011;1521;53.584;9.938;2023-12-20T13:14:33;17.90;;;3.10;;
3022;SDS011;1521;53.584;9.938;2023-12-20T13:17:00;17.00;;;4.00;;
3022;SDS011;1521;53.584;9.938;2023-12-20T13:19:26;17.57;;;2.80;;
3022;SDS011;1521;53.584;9.938;2023-12-20T13:21:51;14.23;;;3.07;;
3022;SDS011;1521;53.584;9.938;2023-12-20T13:24:17;19.40;;;3.00;;
3022;SDS011;1521;53.584;9.938;2023-12-20T13:26:43;26.67;;;4.30;;
3022;SDS011;1521;53.584;9.938;2023-12-20T13:29:09;13.67;;;3.00;;
3022;SDS011;1521;53.584;9.938;2023-12-20T13:31:34;17.50;;;3.40;;
3022;SDS011;1521;53.584;9.938;2023-12-20T13:34:01;25.67;;;4.30;;
3022;SDS011;1521;53.584;9.938;2023-12-20T13:36:27;19.80;;;3.70;;
3022;SDS011;1521;53.584;9.938;2023-12-20T13:38:52;23.57;;;3.83;;
3022;SDS011;1521;53.584;9.938;2023-12-20T13:41:19;21.37;;;3.53;;
3022;SDS011;1521;53.584;9.938;2023-12-20T13:43:45;27.97;;;4.07;;
3022;SDS011;1521;53.584;9.938;2023-12-20T13:46:10;25.43;;;4.37;;
3022;SDS011;1521;53.584;9.938;2023-12-20T13:48:36;27.00;;;4.00;;
3022;SDS011;1521;53.584;9.938;2023-12-20T13:51:01;15.90;;;4.30;;
3022;SDS011;1521;53.584;9.938;2023-12-20T13:53:28;23.47;;;3.87;;
3022;SDS011;1521;53.584;9.938;2023-12-20T13:55:53;26.30;;;4.40;;
3022;SDS011;1521;53.584;9.938;2023-12-20T13:58:19;23.73;;;4.27;;
3022;SDS011;1521;53.584;9.938;2023-12-20T14:00:45;23.40;;;4.17;;
3022;SDS011;1521;53.584;9.938;2023-12-20T14:03:10;27.43;;;4.70;;
3022;SDS011;1521;53.584;9.938;2023-12-20T14:05:36;26.40;;;5.00;;
3022;SDS011;1521;53.584;9.938;2023-12-20T14:08:02;23.33;;;5.10;;
3022;SDS011;1521;53.584;9.938;2023-12-20T14:10:28;31.33;;;5.33;;
3022;SDS011;1521;53.584;9.938;2023-12-20T14:12:54;20.37;;;4.27;;
3022;SDS011;1521;53.584;9.938;2023-12-20T14:15:20;18.03;;;5.40;;
3022;SDS011;1521;53.584;9.938;2023-12-20T14:17:45;23.40;;;4.80;;
3022;SDS011;1521;53.584;9.938;2023-12-20T14:20:11;23.73;;;6.33;;
3022;SDS011;1521;53.584;9.938;2023-12-20T14:22:40;28.47;;;5.47;;
3022;SDS011;1521;53.584;9.938;2023-12-20T14:25:12;26.57;;;4.70;;
3022;SDS011;1521;53.584;9.938;2023-12-20T14:27:39;18.37;;;4.43;;
3022;SDS011;1521;53.584;9.938;2023-12-20T14:30:05;23.07;;;5.20;;
3022;SDS011;1521;53.584;9.938;2023-12-20T14:32:32;32.93;;;5.20;;
3022;SDS011;1521;53.584;9.938;2023-12-20T14:35:01;18.93;;;5.20;;
3022;SDS011;1521;53.584;9.938;2023-12-20T14:37:27;19.23;;;5.27;;
3022;SDS011;1521;53.584;9.938;2023-12-20T14:39:53;15.63;;;3.97;;
3022;SDS011;1521;53.584;9.938;2023-12-20T14:42:19;20.07;;;5.40;;
3022;SDS011;1521;53.584;9.938;2023-12-20T14:44:45;15.47;;;3.97;;
3022;SDS011;1521;53.584;9.938;2023-12-20T14:47:10;17.60;;;3.90;;
3022;SDS011;1521;53.584;9.938;2023-12-20T14:49:36;17.43;;;3.60;;
3022;SDS011;1521;53.584;9.938;2023-12-20T14:52:02;10.80;;;3.60;;
3022;SDS011;1521;53.584;9.938;2023-12-20T14:54:28;25.37;;;3.83;;
3022;SDS011;1521;53.584;9.938;2023-12-20T14:56:53;24.80;;;4.30;;
3022;SDS011;1521;53.584;9.938;2023-12-20T14:59:19;23.30;;;4.03;;
3022;SDS011;1521;53.584;9.938;2023-12-20T15:01:44;23.33;;;5.17;;
3022;SDS011;1521;53.584;9.938;2023-12-20T15:04:10;19.70;;;4.20;;